Ucacha, Argentina
Current Conditions -  °F | °C
As of 8:00 PM on Monday 20 Oct 2014 (Local Time) from SAOC Reporting Station
Clear Clear  
Wind Chill: 72°   Ceiling: Unl
Heat Index: 72°   Visibility: 6mi
Dew Point: 43°   Wind: 18mph
Humidity: 35%   Direction: 360°N
Pressure: 29.97"   Gusts: NA
Location:  33.03°S, 63.52°W
Report Text: SAOC 202300Z 36016KT CAVOK 22/06 Q1015
Loading
Personal Weather Stations






























Interactive Weather Map
Tropical Storm Tracking
New forecast layout! Learn more

10-Day Weather Forecast

Advertisements
Track Severe Weather on mobile